createdAt,value
2023-09-18T00:00:34.101Z,24.35
2023-09-18T00:03:04.067Z,24.49
2023-09-18T00:05:31.887Z,24.50
2023-09-18T00:07:58.856Z,24.44
2023-09-18T00:10:27.306Z,24.40
2023-09-18T00:12:53.804Z,24.48
2023-09-18T00:15:20.287Z,24.51
2023-09-18T00:17:46.970Z,24.57
2023-09-18T00:20:14.620Z,24.50
2023-09-18T00:22:41.298Z,24.38
2023-09-18T00:25:08.165Z,24.42
2023-09-18T00:27:37.009Z,24.44
2023-09-18T00:30:07.629Z,24.41
2023-09-18T00:32:34.523Z,24.39
2023-09-18T00:35:01.428Z,24.44
2023-09-18T00:37:28.024Z,24.41
2023-09-18T00:39:54.654Z,24.36
2023-09-18T00:42:23.564Z,24.40
2023-09-18T00:44:51.469Z,24.32
2023-09-18T00:47:18.727Z,24.27
2023-09-18T00:49:49.786Z,24.24
2023-09-18T00:52:17.976Z,24.38
2023-09-18T00:54:45.871Z,24.36
2023-09-18T00:57:12.758Z,24.35
2023-09-18T00:59:40.362Z,24.38
2023-09-18T01:02:07.320Z,24.34
2023-09-18T01:04:34.701Z,24.29
2023-09-18T01:07:05.363Z,24.24
2023-09-18T01:09:33.876Z,24.22
2023-09-18T01:12:25.930Z,24.20
2023-09-18T01:15:21.904Z,24.20
2023-09-18T01:17:49.278Z,24.23
2023-09-18T01:20:35.864Z,24.18
2023-09-18T01:23:22.346Z,24.14
2023-09-18T01:26:09.324Z,24.19
2023-09-18T01:28:55.911Z,24.17
2023-09-18T01:31:42.594Z,24.21
2023-09-18T01:35:03.081Z,24.20
2023-09-18T01:37:31.941Z,24.21
2023-09-18T01:40:00.874Z,24.13
2023-09-18T01:42:28.726Z,24.27
2023-09-18T01:44:55.865Z,24.24
2023-09-18T01:47:27.956Z,24.21
2023-09-18T01:49:54.969Z,24.24
2023-09-18T01:52:21.666Z,24.23
2023-09-18T01:54:49.021Z,24.18
2023-09-18T01:57:15.605Z,23.99
2023-09-18T01:59:42.565Z,23.76
2023-09-18T02:02:10.742Z,23.60
2023-09-18T02:05:05.140Z,23.62
2023-09-18T02:07:26.062Z,23.51
2023-09-18T02:09:53.061Z,23.29
2023-09-18T02:12:20.090Z,23.05
2023-09-18T02:14:46.682Z,22.93
2023-09-18T02:17:13.254Z,22.94
2023-09-18T02:19:39.982Z,22.98
2023-09-18T02:22:06.619Z,22.77
2023-09-18T02:24:33.317Z,22.61
2023-09-18T02:26:59.809Z,22.53
2023-09-18T02:29:26.990Z,22.52
2023-09-18T02:31:54.300Z,22.47
2023-09-18T02:34:20.980Z,22.24
2023-09-18T02:36:48.256Z,22.22
2023-09-18T02:39:14.915Z,22.27
2023-09-18T02:41:41.543Z,22.26
2023-09-18T02:44:08.097Z,22.15
2023-09-18T02:46:34.805Z,22.00
2023-09-18T02:49:01.620Z,21.94
2023-09-18T02:51:28.265Z,22.00
2023-09-18T02:53:54.830Z,22.03
2023-09-18T02:56:21.783Z,22.06
2023-09-18T02:58:48.414Z,22.04
2023-09-18T03:01:15.004Z,21.99
2023-09-18T03:03:42.912Z,21.90
2023-09-18T03:06:10.610Z,21.95
2023-09-18T03:08:37.505Z,21.93
2023-09-18T03:11:12.766Z,21.95
2023-09-18T03:13:45.440Z,21.94
2023-09-18T03:16:13.164Z,21.84
2023-09-18T03:18:40.462Z,21.80
2023-09-18T03:21:07.033Z,21.69
2023-09-18T03:23:33.569Z,21.60
2023-09-18T03:26:01.040Z,21.62
2023-09-18T03:28:27.968Z,21.56
2023-09-18T03:30:55.000Z,21.65
2023-09-18T03:33:23.815Z,21.59
2023-09-18T03:35:55.473Z,21.59
2023-09-18T03:38:25.948Z,21.62
2023-09-18T03:40:53.060Z,21.64
2023-09-18T03:43:20.293Z,21.58
2023-09-18T03:45:47.369Z,21.58
2023-09-18T03:48:14.168Z,21.68
2023-09-18T03:50:41.906Z,21.64
2023-09-18T03:53:10.838Z,21.55
2023-09-18T03:55:37.588Z,21.50
2023-09-18T03:58:06.238Z,21.62
2023-09-18T04:00:32.966Z,21.73
2023-09-18T04:03:00.003Z,21.74
2023-09-18T04:05:27.990Z,21.80
2023-09-18T04:07:56.602Z,21.80
2023-09-18T04:10:24.703Z,21.93
2023-09-18T04:12:52.874Z,21.87
2023-09-18T04:15:20.775Z,21.79
2023-09-18T04:17:48.654Z,21.71
2023-09-18T04:20:15.805Z,21.62
2023-09-18T04:22:51.043Z,21.46
2023-09-18T04:25:20.340Z,21.16
2023-09-18T04:27:47.413Z,21.00
2023-09-18T04:30:15.011Z,20.97
2023-09-18T04:32:41.976Z,20.83
2023-09-18T04:35:09.957Z,20.73
2023-09-18T04:37:38.649Z,20.83
2023-09-18T04:40:10.762Z,20.74
2023-09-18T04:42:38.007Z,20.65
2023-09-18T04:45:06.426Z,20.69
2023-09-18T04:47:33.704Z,20.70
2023-09-18T04:50:00.566Z,20.68
2023-09-18T04:52:27.396Z,20.73
2023-09-18T04:54:55.255Z,20.66
2023-09-18T04:57:23.201Z,20.63
2023-09-18T04:59:58.443Z,20.59
2023-09-18T05:02:32.572Z,20.58
2023-09-18T05:04:59.373Z,20.56
2023-09-18T05:07:26.134Z,20.38
2023-09-18T05:09:53.320Z,20.36
2023-09-18T05:12:19.906Z,20.34
2023-09-18T05:14:46.737Z,20.30
2023-09-18T05:17:17.156Z,20.31
2023-09-18T05:19:44.665Z,20.33
2023-09-18T05:22:11.945Z,20.34
2023-09-18T05:24:41.587Z,20.29
2023-09-18T05:27:08.554Z,20.35
2023-09-18T05:29:38.696Z,20.38
2023-09-18T05:32:05.598Z,20.40
2023-09-18T05:34:33.118Z,20.35
2023-09-18T05:36:59.834Z,20.37
2023-09-18T05:39:26.605Z,20.38
2023-09-18T05:41:53.279Z,20.35
2023-09-18T05:44:19.977Z,20.41
2023-09-18T05:46:47.176Z,20.35
2023-09-18T05:49:13.897Z,20.32
2023-09-18T05:51:40.422Z,20.25
2023-09-18T05:54:06.957Z,20.10
2023-09-18T05:56:34.782Z,19.89
2023-09-18T05:59:01.351Z,19.86
2023-09-18T06:01:28.784Z,19.98
2023-09-18T06:03:55.363Z,20.08
2023-09-18T06:06:22.100Z,20.10
2023-09-18T06:08:48.676Z,20.10
2023-09-18T06:11:15.494Z,20.13
2023-09-18T06:13:41.982Z,20.16
2023-09-18T06:16:09.595Z,19.91
2023-09-18T06:18:39.169Z,19.93
2023-09-18T06:21:06.415Z,19.99
2023-09-18T06:23:33.255Z,20.01
2023-09-18T06:26:00.503Z,20.09
2023-09-18T06:28:27.250Z,19.98
2023-09-18T06:30:55.139Z,19.98
2023-09-18T06:33:22.141Z,20.02
2023-09-18T06:35:49.840Z,19.98
2023-09-18T06:38:16.648Z,20.01
2023-09-18T06:40:43.253Z,20.02
2023-09-18T06:43:09.850Z,20.10
2023-09-18T06:45:39.126Z,20.14
2023-09-18T06:48:06.342Z,20.02
2023-09-18T06:50:33.070Z,20.08
2023-09-18T06:52:59.701Z,19.96
2023-09-18T06:55:26.223Z,20.07
2023-09-18T06:57:53.146Z,20.10
2023-09-18T07:00:22.014Z,20.17
2023-09-18T07:02:50.851Z,20.18
2023-09-18T07:05:18.038Z,20.07
2023-09-18T07:07:44.759Z,20.00
2023-09-18T07:10:11.324Z,20.09
2023-09-18T07:12:38.126Z,20.06
2023-09-18T07:15:06.074Z,20.14
2023-09-18T07:17:34.054Z,20.15
2023-09-18T07:20:01.429Z,20.14
2023-09-18T07:22:30.709Z,20.19
2023-09-18T07:24:57.727Z,20.14
2023-09-18T07:27:24.416Z,20.29
2023-09-18T07:29:51.093Z,20.26
2023-09-18T07:32:29.909Z,20.26
2023-09-18T07:35:07.737Z,20.36
2023-09-18T07:37:35.336Z,20.36
2023-09-18T07:40:02.045Z,20.41
2023-09-18T07:42:28.730Z,20.39
2023-09-18T07:44:57.889Z,20.39
2023-09-18T07:47:25.920Z,20.38
2023-09-18T07:49:52.745Z,20.48
2023-09-18T07:52:19.306Z,20.48
2023-09-18T07:54:45.879Z,20.50
2023-09-18T07:57:12.748Z,20.42
2023-09-18T07:59:43.551Z,20.42
2023-09-18T08:02:13.113Z,20.44
2023-09-18T08:04:40.355Z,20.50
2023-09-18T08:07:08.150Z,20.56
2023-09-18T08:09:38.078Z,20.54
2023-09-18T08:12:04.996Z,20.53
2023-09-18T08:14:31.726Z,20.57
2023-09-18T08:16:59.912Z,20.56
2023-09-18T08:19:29.917Z,20.57
2023-09-18T08:22:05.156Z,20.63
2023-09-18T08:24:32.631Z,20.66
2023-09-18T08:26:59.200Z,20.62
2023-09-18T08:29:25.759Z,20.61
2023-09-18T08:31:52.356Z,20.60
2023-09-18T08:34:20.521Z,20.61
2023-09-18T08:36:48.860Z,20.69
2023-09-18T08:39:15.360Z,20.60
2023-09-18T08:41:44.102Z,20.60
2023-09-18T08:44:10.885Z,20.65
2023-09-18T08:46:38.844Z,20.62
2023-09-18T08:49:06.114Z,20.61
2023-09-18T08:51:34.236Z,20.55
2023-09-18T08:54:01.502Z,20.52
2023-09-18T08:56:29.311Z,20.56
2023-09-18T08:58:57.815Z,20.45
2023-09-18T09:01:24.319Z,20.61
2023-09-18T09:03:51.247Z,20.59
2023-09-18T09:06:18.132Z,20.43
2023-09-18T09:08:44.748Z,20.47
2023-09-18T09:11:11.592Z,20.47
2023-09-18T09:13:41.832Z,20.65
2023-09-18T09:16:14.647Z,20.62
2023-09-18T09:18:50.567Z,20.63
2023-09-18T09:21:18.074Z,20.70
2023-09-18T09:23:50.420Z,20.74
2023-09-18T09:26:18.918Z,20.71
2023-09-18T09:28:46.344Z,20.73
2023-09-18T09:31:24.042Z,20.70
2023-09-18T09:34:00.259Z,20.71
2023-09-18T09:36:27.219Z,20.70
2023-09-18T09:38:59.364Z,20.72
2023-09-18T09:41:28.714Z,20.62
2023-09-18T09:43:59.281Z,20.68
2023-09-18T09:46:27.076Z,20.72
2023-09-18T09:49:05.960Z,20.69
2023-09-18T09:51:35.314Z,20.77
2023-09-18T09:54:02.175Z,20.75
2023-09-18T09:56:43.720Z,20.76
2023-09-18T09:59:13.672Z,20.71
2023-09-18T10:01:41.454Z,20.71
2023-09-18T10:04:19.027Z,20.75
2023-09-18T10:06:52.196Z,20.78
2023-09-18T10:09:20.538Z,20.76
2023-09-18T10:11:53.319Z,20.87
2023-09-18T10:14:55.387Z,20.83
2023-09-18T10:17:28.546Z,20.89
2023-09-18T10:20:09.591Z,20.94
2023-09-18T10:22:43.892Z,20.96
2023-09-18T10:25:21.654Z,20.95
2023-09-18T10:27:59.305Z,21.06
2023-09-18T10:30:28.027Z,21.25
2023-09-18T10:32:56.071Z,21.22
2023-09-18T10:35:23.852Z,21.25
2023-09-18T10:37:55.004Z,21.26
2023-09-18T10:40:23.512Z,21.32
2023-09-18T10:42:52.001Z,21.31
2023-09-18T10:45:18.780Z,21.44
2023-09-18T10:47:49.183Z,21.46
2023-09-18T10:50:27.654Z,21.58
2023-09-18T10:52:54.638Z,21.71
2023-09-18T10:55:22.992Z,21.97
2023-09-18T10:57:58.323Z,22.20
2023-09-18T11:00:33.217Z,22.11
2023-09-18T11:03:14.043Z,22.38
2023-09-18T11:05:40.938Z,22.72
2023-09-18T11:08:29.514Z,22.54
2023-09-18T11:11:15.278Z,22.64
2023-09-18T11:13:44.907Z,23.05
2023-09-18T11:16:26.977Z,22.88
2023-09-18T11:19:17.948Z,22.88
2023-09-18T11:21:44.825Z,22.78
2023-09-18T11:24:31.595Z,22.81
2023-09-18T11:26:58.344Z,22.79
2023-09-18T11:29:28.009Z,23.02
2023-09-18T11:31:57.566Z,22.88
2023-09-18T11:34:34.230Z,22.88
2023-09-18T11:37:01.139Z,23.14
2023-09-18T11:39:41.568Z,22.89
2023-09-18T11:42:11.049Z,23.18
2023-09-18T11:44:42.752Z,23.42
2023-09-18T11:47:20.621Z,23.12
2023-09-18T11:49:57.027Z,23.20
2023-09-18T11:52:26.134Z,23.25
2023-09-18T11:54:54.049Z,23.51
2023-09-18T11:57:20.875Z,23.58
2023-09-18T11:59:48.118Z,23.69
2023-09-18T12:02:39.432Z,23.51
2023-09-18T12:05:11.190Z,23.49
2023-09-18T12:07:37.886Z,23.84
2023-09-18T12:10:09.798Z,23.87
2023-09-18T12:12:37.120Z,24.09
2023-09-18T12:15:04.655Z,24.23
2023-09-18T12:17:31.371Z,24.44
2023-09-18T12:19:58.020Z,24.25
2023-09-18T12:22:29.127Z,23.98
2023-09-18T12:25:17.152Z,23.58
2023-09-18T12:27:44.931Z,23.67
2023-09-18T12:30:12.977Z,23.70
2023-09-18T12:32:40.395Z,23.48
2023-09-18T12:35:08.489Z,23.82
2023-09-18T12:37:42.445Z,23.65
2023-09-18T12:40:23.076Z,24.03
2023-09-18T12:42:51.456Z,24.19
2023-09-18T12:45:18.660Z,24.05
2023-09-18T12:47:45.586Z,24.16
2023-09-18T12:50:15.693Z,24.01
2023-09-18T12:52:42.724Z,23.98
2023-09-18T12:55:10.139Z,23.74
2023-09-18T12:57:36.752Z,23.92
2023-09-18T13:00:14.277Z,23.75
2023-09-18T13:02:41.201Z,23.65
2023-09-18T13:05:08.563Z,23.69
2023-09-18T13:07:46.228Z,23.86
2023-09-18T13:10:14.503Z,23.82
2023-09-18T13:12:42.822Z,24.05
2023-09-18T13:15:10.144Z,24.68
2023-09-18T13:17:42.385Z,24.72
2023-09-18T13:20:22.010Z,24.26
2023-09-18T13:22:53.318Z,24.25
2023-09-18T13:25:22.900Z,24.30
2023-09-18T13:27:50.909Z,24.03
2023-09-18T13:30:21.640Z,24.30
2023-09-18T13:32:50.165Z,24.06
2023-09-18T13:35:18.251Z,23.96
2023-09-18T13:37:45.363Z,23.93
2023-09-18T13:40:12.644Z,24.10
2023-09-18T13:42:39.717Z,23.99
2023-09-18T13:45:07.332Z,24.56
2023-09-18T13:47:35.266Z,24.35
2023-09-18T13:50:03.792Z,24.49
2023-09-18T13:52:32.607Z,24.40
2023-09-18T13:54:59.573Z,24.41
2023-09-18T13:57:26.187Z,24.65
2023-09-18T13:59:53.188Z,24.86
2023-09-18T14:02:20.196Z,24.94
2023-09-18T14:04:46.996Z,24.99
2023-09-18T14:07:13.523Z,24.89
2023-09-18T14:09:40.252Z,25.30
2023-09-18T14:12:08.312Z,25.65
2023-09-18T14:14:36.240Z,26.25
2023-09-18T14:17:04.831Z,26.41
2023-09-18T14:19:31.453Z,26.71
2023-09-18T14:21:58.187Z,26.72
2023-09-18T14:24:26.922Z,26.67
2023-09-18T14:26:53.744Z,27.88
2023-09-18T14:29:20.531Z,27.62
2023-09-18T14:31:47.146Z,27.19
2023-09-18T14:34:13.851Z,27.43
2023-09-18T14:36:40.687Z,27.90
2023-09-18T14:39:10.612Z,27.53
2023-09-18T14:41:37.647Z,27.54
2023-09-18T14:44:10.076Z,27.92
2023-09-18T14:46:38.663Z,28.33
2023-09-18T14:49:06.215Z,28.45
2023-09-18T14:51:33.573Z,28.03
2023-09-18T14:54:01.052Z,28.44
2023-09-18T14:56:28.753Z,28.70
2023-09-18T14:58:56.338Z,28.73
2023-09-18T15:01:23.676Z,28.99
2023-09-18T15:03:50.544Z,28.71
2023-09-18T15:06:17.977Z,29.64
2023-09-18T15:08:44.594Z,28.97
2023-09-18T15:11:12.116Z,29.78
2023-09-18T15:13:38.946Z,29.75
2023-09-18T15:16:07.322Z,30.67
2023-09-18T15:18:33.976Z,29.57
2023-09-18T15:21:00.822Z,28.57
2023-09-18T15:23:27.531Z,29.34
2023-09-18T15:25:54.844Z,29.71
2023-09-18T15:28:21.579Z,30.18
2023-09-18T15:30:49.072Z,30.02
2023-09-18T15:33:18.263Z,30.78
2023-09-18T15:35:45.653Z,30.80
2023-09-18T15:38:12.510Z,28.86
2023-09-18T15:40:39.630Z,28.70
2023-09-18T15:43:06.210Z,29.62
2023-09-18T15:45:36.238Z,30.21
2023-09-18T15:48:03.406Z,29.76
2023-09-18T15:50:38.040Z,29.34
2023-09-18T15:53:05.125Z,28.83
2023-09-18T15:55:31.679Z,28.15
2023-09-18T15:57:58.342Z,27.26
2023-09-18T16:00:24.994Z,27.53
2023-09-18T16:02:59.774Z,27.74
2023-09-18T16:05:27.094Z,27.12
2023-09-18T16:08:04.333Z,26.30
2023-09-18T16:10:33.276Z,26.63
2023-09-18T16:13:00.840Z,26.09
2023-09-18T16:15:30.517Z,25.91
2023-09-18T16:17:57.047Z,25.99
2023-09-18T16:20:23.972Z,25.84
2023-09-18T16:22:50.782Z,25.80
2023-09-18T16:25:17.396Z,25.86
2023-09-18T16:27:43.920Z,25.53
2023-09-18T16:30:11.406Z,25.53
2023-09-18T16:32:39.725Z,25.30
2023-09-18T16:35:06.729Z,25.41
2023-09-18T16:37:33.978Z,25.12
2023-09-18T16:40:00.848Z,25.02
2023-09-18T16:42:27.588Z,24.96
2023-09-18T16:44:55.556Z,24.97
2023-09-18T16:47:22.426Z,24.90
2023-09-18T16:49:50.135Z,24.73
2023-09-18T16:52:18.382Z,24.63
2023-09-18T16:54:45.330Z,24.38
2023-09-18T16:57:13.985Z,24.45
2023-09-18T16:59:40.643Z,24.42
2023-09-18T17:02:09.506Z,24.10
2023-09-18T17:04:41.063Z,24.20
2023-09-18T17:07:11.880Z,24.15
2023-09-18T17:09:38.964Z,24.13
2023-09-18T17:12:06.270Z,23.91
2023-09-18T17:14:32.930Z,24.10
2023-09-18T17:16:59.714Z,24.00
2023-09-18T17:19:26.167Z,23.93
2023-09-18T17:21:52.734Z,23.99
2023-09-18T17:24:19.312Z,23.73
2023-09-18T17:26:46.053Z,23.84
2023-09-18T17:29:12.677Z,23.63
2023-09-18T17:31:39.152Z,23.74
2023-09-18T17:34:06.222Z,23.60
2023-09-18T17:36:40.848Z,23.62
2023-09-18T17:39:10.070Z,23.58
2023-09-18T17:41:36.764Z,23.60
2023-09-18T17:44:03.669Z,23.13
2023-09-18T17:46:30.773Z,23.29
2023-09-18T17:48:57.515Z,23.04
2023-09-18T17:51:24.123Z,21.92
2023-09-18T17:53:51.484Z,21.59
2023-09-18T17:56:18.034Z,21.39
2023-09-18T17:58:44.976Z,21.23
2023-09-18T18:01:12.204Z,21.26
2023-09-18T18:03:41.134Z,21.15
2023-09-18T18:06:11.800Z,20.86
2023-09-18T18:08:38.370Z,20.75
2023-09-18T18:11:05.636Z,20.81
2023-09-18T18:13:32.673Z,20.59
2023-09-18T18:15:59.482Z,20.38
2023-09-18T18:18:26.805Z,20.47
2023-09-18T18:20:56.609Z,20.36
2023-09-18T18:23:23.530Z,20.24
2023-09-18T18:25:53.025Z,20.22
2023-09-18T18:28:19.792Z,20.36
2023-09-18T18:30:50.233Z,20.25
2023-09-18T18:33:23.290Z,20.18
2023-09-18T18:35:50.101Z,20.18
2023-09-18T18:38:16.927Z,20.29
2023-09-18T18:40:44.339Z,20.13
2023-09-18T18:43:17.007Z,20.02
2023-09-18T18:45:44.183Z,19.98
2023-09-18T18:48:10.944Z,19.96
2023-09-18T18:50:39.834Z,19.85
2023-09-18T18:53:08.618Z,19.73
2023-09-18T18:55:35.547Z,19.64
2023-09-18T18:58:02.117Z,19.41
2023-09-18T19:00:28.790Z,19.46
2023-09-18T19:02:55.548Z,19.44
2023-09-18T19:05:25.147Z,19.40
2023-09-18T19:07:52.215Z,19.34
2023-09-18T19:10:18.763Z,19.33
2023-09-18T19:12:48.545Z,19.35
2023-09-18T19:15:15.712Z,19.24
2023-09-18T19:17:44.051Z,19.21
2023-09-18T19:20:12.066Z,19.22
2023-09-18T19:22:38.988Z,19.09
2023-09-18T19:25:05.968Z,19.09
2023-09-18T19:27:37.590Z,18.91
2023-09-18T19:30:08.257Z,18.91
2023-09-18T19:32:38.923Z,18.96
2023-09-18T19:35:06.661Z,18.92
2023-09-18T19:37:33.798Z,18.90
2023-09-18T19:40:00.448Z,18.93
2023-09-18T19:42:27.186Z,18.85
2023-09-18T19:44:53.727Z,18.86
2023-09-18T19:47:20.443Z,18.73
2023-09-18T19:49:46.948Z,18.77
2023-09-18T19:52:15.030Z,18.76
2023-09-18T19:54:41.817Z,18.77
2023-09-18T19:57:08.790Z,18.66
2023-09-18T19:59:35.760Z,18.67
2023-09-18T20:02:07.138Z,18.61
2023-09-18T20:04:34.869Z,18.61
2023-09-18T20:07:01.565Z,18.60
2023-09-18T20:09:28.420Z,18.60
2023-09-18T20:11:55.200Z,18.60
2023-09-18T20:14:31.145Z,18.55
2023-09-18T20:16:59.090Z,18.53
2023-09-18T20:19:25.758Z,18.57
2023-09-18T20:21:53.084Z,18.46
2023-09-18T20:24:20.368Z,18.38
2023-09-18T20:26:48.927Z,18.33
2023-09-18T20:29:16.830Z,18.37
2023-09-18T20:31:43.885Z,18.34
2023-09-18T20:34:11.024Z,18.37
2023-09-18T20:36:39.716Z,18.37
2023-09-18T20:39:06.432Z,18.36
2023-09-18T20:41:33.637Z,18.38
2023-09-18T20:44:01.281Z,18.31
2023-09-18T20:46:31.604Z,18.30
2023-09-18T20:51:31.927Z,18.34
2023-09-18T20:54:01.262Z,18.28
2023-09-18T20:56:28.722Z,18.22
2023-09-18T20:58:57.787Z,18.21
2023-09-18T21:01:27.793Z,18.20
2023-09-18T21:04:07.515Z,18.16
2023-09-18T21:06:34.427Z,18.15
2023-09-18T21:09:01.139Z,18.20
2023-09-18T21:11:28.408Z,18.17
2023-09-18T21:13:55.385Z,18.08
2023-09-18T21:16:22.102Z,18.04
2023-09-18T21:18:48.758Z,18.05
2023-09-18T21:21:16.529Z,18.09
2023-09-18T21:23:45.627Z,18.05
2023-09-18T21:26:13.203Z,17.97
2023-09-18T21:28:40.707Z,17.96
2023-09-18T21:31:09.697Z,17.97
2023-09-18T21:33:37.615Z,17.95
2023-09-18T21:36:22.410Z,17.92
2023-09-18T21:38:50.453Z,17.92
2023-09-18T21:41:18.485Z,17.81
2023-09-18T21:43:46.186Z,17.79
2023-09-18T21:46:13.828Z,17.80
2023-09-18T21:48:40.987Z,17.77
2023-09-18T21:51:08.484Z,17.76
2023-09-18T21:56:05.664Z,17.70
2023-09-18T21:58:32.227Z,17.69
2023-09-18T22:01:02.315Z,17.63
2023-09-18T22:03:28.967Z,17.67
2023-09-18T22:05:55.737Z,17.70
2023-09-18T22:08:22.257Z,17.71
2023-09-18T22:10:48.949Z,17.67
2023-09-18T22:13:16.857Z,17.64
2023-09-18T22:15:43.705Z,17.68
2023-09-18T22:18:10.808Z,17.63
2023-09-18T22:20:39.257Z,17.59
2023-09-18T22:23:07.014Z,17.54
2023-09-18T22:25:34.123Z,17.52
2023-09-18T22:28:02.615Z,17.51
2023-09-18T22:30:30.313Z,17.52
2023-09-18T22:32:57.136Z,17.46
2023-09-18T22:35:24.176Z,17.39
2023-09-18T22:38:02.618Z,17.35
2023-09-18T22:40:29.489Z,17.39
2023-09-18T22:43:38.478Z,17.37
2023-09-18T22:46:42.852Z,17.37
2023-09-18T22:49:48.100Z,17.34
2023-09-18T22:52:44.201Z,17.34
2023-09-18T22:55:15.294Z,17.35
2023-09-18T22:57:46.727Z,17.36
2023-09-18T23:00:15.826Z,17.34
2023-09-18T23:02:44.178Z,17.34
2023-09-18T23:05:16.923Z,17.34
2023-09-18T23:07:50.920Z,17.35
2023-09-18T23:10:17.953Z,17.33
2023-09-18T23:12:45.566Z,17.33
2023-09-18T23:15:13.923Z,17.36
2023-09-18T23:17:41.377Z,17.37
2023-09-18T23:20:12.794Z,17.39
2023-09-18T23:22:41.561Z,17.31
2023-09-18T23:25:13.204Z,17.33
2023-09-18T23:27:46.424Z,17.38
2023-09-18T23:30:21.374Z,17.36
2023-09-18T23:32:56.313Z,17.36
2023-09-18T23:35:23.103Z,17.42
2023-09-18T23:38:00.830Z,17.38
2023-09-18T23:40:32.622Z,17.33
2023-09-18T23:43:04.713Z,17.27
2023-09-18T23:45:39.273Z,17.27
2023-09-18T23:48:14.577Z,17.27
2023-09-18T23:50:49.966Z,17.29
2023-09-18T23:53:25.973Z,17.28
2023-09-18T23:55:53.446Z,17.29
2023-09-18T23:58:23.238Z,17.25
